Terminal Aerodrome Forecast
Issued by NWS

Home | Current Version | Previous Version | Text Only | Print | Product List | Glossary Off
Versions: 1 2 3 4 5 6 7 8 9 10 11 12 13

000
FTUS45 KGGW 172320
TAFOLF
TAF
KOLF 172320Z 1800/1824 VRB05KT P6SM FEW120
     FM180500 04007KT P6SM FEW150
     FM181700 08012KT P6SM FEW110
     FM182100 12007KT P6SM VCSH SCT080 BKN120=

USA.gov is the U.S. government's official web portal to all federal, state and local government web resources and services.